createdAt,value
2018-05-26T00:57:24.972Z,99.90
2018-05-26T00:59:56.035Z,99.90
2018-05-26T01:02:31.662Z,99.90
2018-05-26T01:05:02.102Z,99.90
2018-05-26T01:43:14.049Z,99.90
2018-05-26T01:45:43.412Z,99.90
2018-05-26T01:48:34.496Z,99.90
2018-05-26T01:51:18.346Z,99.90
2018-05-26T01:54:03.007Z,99.90
2018-05-26T01:59:54.231Z,99.90
2018-05-26T02:02:34.434Z,99.90
2018-05-26T02:08:03.869Z,99.90
2018-05-26T02:14:00.703Z,99.90
2018-05-26T02:16:50.630Z,99.90
2018-05-26T02:19:32.379Z,99.90
2018-05-26T02:25:21.345Z,99.90
2018-05-26T02:27:58.627Z,99.90
2018-05-26T02:30:41.922Z,99.90
2018-05-26T02:37:50.110Z,99.90
2018-05-26T02:40:33.054Z,99.90
2018-05-26T02:57:16.817Z,99.90
2018-05-26T02:59:52.769Z,99.90
2018-05-26T03:05:21.862Z,99.90
2018-05-26T03:08:09.353Z,99.90
2018-05-26T03:10:50.792Z,99.90
2018-05-26T03:13:34.996Z,99.90
2018-05-26T03:55:42.356Z,99.90
2018-05-26T03:58:34.341Z,99.90
2018-05-26T04:01:10.171Z,99.90
2018-05-26T04:06:24.333Z,99.90
2018-05-26T04:09:02.681Z,99.90
2018-05-26T04:11:41.400Z,99.90
2018-05-26T04:17:53.974Z,99.90
2018-05-26T04:20:29.963Z,99.90
2018-05-26T04:25:57.583Z,99.90
2018-05-26T04:55:52.484Z,99.90
2018-05-26T04:58:50.792Z,99.90
2018-05-26T05:01:21.157Z,99.90
2018-05-26T05:03:52.272Z,99.90
2018-05-26T05:06:25.492Z,99.90
2018-05-26T05:08:59.863Z,99.90
2018-05-26T05:11:31.858Z,99.90
2018-05-26T05:14:01.164Z,99.90
2018-05-26T05:16:30.464Z,99.90
2018-05-26T05:18:59.777Z,99.90
2018-05-26T05:21:29.071Z,99.90
2018-05-26T05:23:58.380Z,99.90
2018-05-26T05:26:27.721Z,99.90
2018-05-26T05:28:56.993Z,99.90
2018-05-26T05:31:27.066Z,99.90
2018-05-26T05:33:56.378Z,99.90
2018-05-26T05:36:25.724Z,99.90
2018-05-26T05:38:55.777Z,99.90
2018-05-26T05:41:25.059Z,99.90
2018-05-26T05:43:54.376Z,99.90
2018-05-26T05:46:23.694Z,99.60
2018-05-26T05:48:52.984Z,99.20
2018-05-26T05:51:23.112Z,99.20
2018-05-26T05:53:52.426Z,99.20
2018-05-26T05:56:21.802Z,99.80
2018-05-26T05:58:51.045Z,99.30
2018-05-26T06:01:21.267Z,99.20
2018-05-26T06:03:50.576Z,99.20
2018-05-26T06:06:20.641Z,98.50
2018-05-26T06:08:49.970Z,98.50
2018-05-26T06:11:19.343Z,98.10
2018-05-26T06:13:48.635Z,98.10
2018-05-26T06:16:17.956Z,98.10
2018-05-26T06:18:47.277Z,98.30
2018-05-26T06:21:16.573Z,98.20
2018-05-26T06:23:45.874Z,97.90
2018-05-26T06:26:15.245Z,97.50
2018-05-26T06:28:44.549Z,97.50
2018-05-26T06:31:13.857Z,97.70
2018-05-26T06:33:43.156Z,97.70
2018-05-26T06:36:12.458Z,97.50
2018-05-26T06:38:41.777Z,98.50
2018-05-26T06:41:11.097Z,98.50
2018-05-26T06:43:40.425Z,98.90
2018-05-26T06:46:10.497Z,99.00
2018-05-26T06:48:39.820Z,98.90
2018-05-26T06:51:09.131Z,98.10
2018-05-26T06:53:38.443Z,97.80
2018-05-26T06:56:07.775Z,98.20
2018-05-26T06:58:37.079Z,97.90
2018-05-26T07:01:06.417Z,97.10
2018-05-26T07:03:35.709Z,97.90
2018-05-26T07:06:05.020Z,97.20
2018-05-26T07:08:34.314Z,96.30
2018-05-26T07:11:04.250Z,97.00
2018-05-26T07:13:33.556Z,96.40
2018-05-26T07:16:03.631Z,95.00
2018-05-26T07:18:32.996Z,95.00
2018-05-26T07:21:03.121Z,95.60
2018-05-26T07:23:32.446Z,95.20
2018-05-26T07:26:02.386Z,94.50
2018-05-26T07:28:35.000Z,94.70
2018-05-26T07:31:06.979Z,94.20
2018-05-26T07:33:40.163Z,93.60
2018-05-26T07:36:11.215Z,93.30
2018-05-26T07:38:42.943Z,93.30
2018-05-26T07:41:16.447Z,93.70
2018-05-26T07:43:54.415Z,93.20
2018-05-26T07:46:39.617Z,93.20
2018-05-26T07:49:10.911Z,93.00
2018-05-26T07:51:45.904Z,93.30
2018-05-26T07:54:19.291Z,93.00
2018-05-26T07:56:56.510Z,93.20
2018-05-26T07:59:30.539Z,93.20
2018-05-26T08:02:02.006Z,92.70
2018-05-26T08:04:33.054Z,92.50
2018-05-26T08:07:10.531Z,93.30
2018-05-26T08:09:46.742Z,93.30
2018-05-26T08:12:22.062Z,93.30
2018-05-26T08:17:35.785Z,92.70
2018-05-26T08:20:22.533Z,92.10
2018-05-26T08:22:53.164Z,92.00
2018-05-26T08:28:26.475Z,92.30
2018-05-26T08:36:33.527Z,92.60
2018-05-26T08:39:11.684Z,92.20
2018-05-26T08:41:45.819Z,92.10
2018-05-26T08:44:17.543Z,92.20
2018-05-26T08:46:54.679Z,91.50
2018-05-26T08:52:13.986Z,91.10
2018-05-26T08:54:48.755Z,91.30
2018-05-26T08:57:23.833Z,91.20
2018-05-26T08:59:55.636Z,91.90
2018-05-26T09:02:25.518Z,91.80
2018-05-26T09:04:54.965Z,91.30
2018-05-26T09:07:26.068Z,91.70
2018-05-26T09:09:57.100Z,91.30
2018-05-26T09:12:27.315Z,91.60
2018-05-26T09:14:58.505Z,90.90
2018-05-26T09:17:27.745Z,90.80
2018-05-26T09:19:57.827Z,90.30
2018-05-26T09:22:27.155Z,90.30
2018-05-26T09:24:56.452Z,90.70
2018-05-26T09:27:25.758Z,89.80
2018-05-26T09:29:55.086Z,90.40
2018-05-26T09:32:24.424Z,88.90
2018-05-26T09:34:54.653Z,87.90
2018-05-26T09:37:23.955Z,88.50
2018-05-26T09:39:53.283Z,90.20
2018-05-26T09:42:22.627Z,87.40
2018-05-26T09:44:52.632Z,87.10
2018-05-26T09:47:21.948Z,87.90
2018-05-26T09:49:51.268Z,87.20
2018-05-26T09:52:20.546Z,88.30
2018-05-26T09:54:49.866Z,90.10
2018-05-26T09:57:19.396Z,89.00
2018-05-26T09:59:49.700Z,88.00
2018-05-26T10:02:19.830Z,88.60
2018-05-26T10:04:52.156Z,89.70
2018-05-26T10:07:23.426Z,86.90
2018-05-26T10:09:58.369Z,86.80
2018-05-26T10:15:35.141Z,83.30
2018-05-26T10:18:04.896Z,83.30
2018-05-26T10:20:35.501Z,84.20
2018-05-26T10:23:11.527Z,84.80
2018-05-26T10:25:45.524Z,83.80
2018-05-26T10:28:14.892Z,83.80
2018-05-26T10:30:44.306Z,84.30
2018-05-26T10:33:14.476Z,84.10
2018-05-26T10:35:44.661Z,81.30
2018-05-26T10:38:13.987Z,80.00
2018-05-26T10:40:43.342Z,80.00
2018-05-26T10:43:12.638Z,80.10
2018-05-26T10:45:41.991Z,78.90
2018-05-26T10:48:12.069Z,78.50
2018-05-26T10:50:41.363Z,78.50
2018-05-26T10:53:10.697Z,79.60
2018-05-26T10:55:40.669Z,77.40
2018-05-26T10:58:09.963Z,78.10
2018-05-26T11:00:40.071Z,76.70
2018-05-26T11:03:09.393Z,78.70
2018-05-26T11:05:38.717Z,75.40
2018-05-26T11:08:08.928Z,75.80
2018-05-26T11:10:38.241Z,75.70
2018-05-26T11:13:08.255Z,74.00
2018-05-26T11:15:37.573Z,72.10
2018-05-26T11:18:07.808Z,72.20
2018-05-26T11:20:38.631Z,73.20
2018-05-26T11:23:07.968Z,73.20
2018-05-26T11:25:38.125Z,73.30
2018-05-26T11:28:08.367Z,74.40
2018-05-26T11:30:37.666Z,75.10
2018-05-26T11:33:07.600Z,72.40
2018-05-26T11:35:37.639Z,74.10
2018-05-26T11:38:07.339Z,74.10
2018-05-26T11:40:37.471Z,71.30
2018-05-26T11:43:06.765Z,71.40
2018-05-26T11:45:36.049Z,70.40
2018-05-26T11:48:06.147Z,71.90
2018-05-26T11:50:35.430Z,71.90
2018-05-26T11:53:04.828Z,69.10
2018-05-26T11:55:34.140Z,70.10
2018-05-26T11:58:03.457Z,71.00
2018-05-26T12:00:32.768Z,74.30
2018-05-26T12:03:02.117Z,76.90
2018-05-26T12:05:32.178Z,76.90
2018-05-26T12:08:01.512Z,76.80
2018-05-26T12:10:31.138Z,73.80
2018-05-26T12:13:00.476Z,72.90
2018-05-26T12:15:29.807Z,70.50
2018-05-26T12:17:59.875Z,69.10
2018-05-26T12:20:29.207Z,68.80
2018-05-26T12:22:59.692Z,68.10
2018-05-26T12:25:29.064Z,67.90
2018-05-26T12:27:58.341Z,68.50
2018-05-26T12:33:17.029Z,68.30
2018-05-26T12:35:49.498Z,69.10
2018-05-26T12:38:25.631Z,69.10
2018-05-26T12:40:59.244Z,70.00
2018-05-26T12:43:32.833Z,69.70
2018-05-26T12:46:05.170Z,69.80
2018-05-26T12:48:34.604Z,69.10
2018-05-26T12:51:04.207Z,71.20
2018-05-26T12:53:34.881Z,71.60
2018-05-26T12:56:04.197Z,71.20
2018-05-26T12:58:34.296Z,69.40
2018-05-26T13:01:04.308Z,69.40
2018-05-26T13:03:34.440Z,72.40
2018-05-26T13:06:04.547Z,71.80
2018-05-26T13:08:33.801Z,71.80
2018-05-26T13:11:04.031Z,70.90
2018-05-26T13:13:33.376Z,70.60
2018-05-26T13:16:02.900Z,70.60
2018-05-26T13:18:32.850Z,71.50
2018-05-26T13:21:02.277Z,71.90
2018-05-26T13:23:31.727Z,71.40
2018-05-26T13:26:02.757Z,70.30
2018-05-26T13:28:32.759Z,70.30
2018-05-26T13:31:06.365Z,71.70
2018-05-26T13:33:38.465Z,71.00
2018-05-26T13:36:10.289Z,69.60
2018-05-26T13:38:45.285Z,68.90
2018-05-26T13:41:18.619Z,69.00
2018-05-26T13:43:52.817Z,69.10
2018-05-26T13:49:14.936Z,69.10
2018-05-26T13:51:47.787Z,68.00
2018-05-26T13:54:21.210Z,68.40
2018-05-26T13:56:56.127Z,67.50
2018-05-26T13:59:35.712Z,69.70
2018-05-26T14:02:09.077Z,69.00
2018-05-26T14:05:00.289Z,67.00
2018-05-26T14:47:09.139Z,68.20
2018-05-26T14:50:20.853Z,65.10
2018-05-26T14:55:45.558Z,63.80
2018-05-26T15:01:07.119Z,63.60
2018-05-26T15:12:06.792Z,63.70
2018-05-26T15:14:45.090Z,64.00
2018-05-26T15:17:19.972Z,65.20
2018-05-26T15:20:00.131Z,64.70
2018-05-26T15:22:34.930Z,64.60
2018-05-26T15:31:09.448Z,63.80
2018-05-26T15:37:15.753Z,65.70
2018-05-26T15:42:45.225Z,64.60
2018-05-26T15:54:54.616Z,64.30
2018-05-26T15:58:10.789Z,65.00
2018-05-26T16:01:00.066Z,63.50
2018-05-26T16:06:56.756Z,64.40
2018-05-26T16:19:33.791Z,66.30
2018-05-26T16:43:11.053Z,69.20
2018-05-26T16:57:54.418Z,73.30
2018-05-26T17:04:23.526Z,75.40
2018-05-26T17:07:14.908Z,76.30
2018-05-26T17:09:59.909Z,77.00
2018-05-26T18:09:58.688Z,81.40
2018-05-26T18:29:03.920Z,83.00
2018-05-26T18:31:45.108Z,83.70
2018-05-26T18:35:16.938Z,84.10
2018-05-26T18:41:18.098Z,84.50
2018-05-26T18:44:23.611Z,84.20
2018-05-26T18:49:56.803Z,85.10
2018-05-26T19:02:55.854Z,84.00
2018-05-26T19:40:05.574Z,88.60
2018-05-26T19:46:20.300Z,90.00
2018-05-26T19:52:33.714Z,90.50
2018-05-26T20:04:49.776Z,91.10
